createdAt,value
2022-12-01T00:01:51.160Z,71.41
2022-12-01T00:04:20.512Z,71.26
2022-12-01T00:06:50.216Z,71.15
2022-12-01T00:09:38.153Z,70.98
2022-12-01T00:12:07.989Z,70.95
2022-12-01T00:14:37.282Z,71.08
2022-12-01T00:17:06.479Z,71.31
2022-12-01T00:19:35.855Z,71.28
2022-12-01T00:22:05.283Z,70.84
2022-12-01T00:24:34.607Z,70.56
2022-12-01T00:27:04.257Z,70.58
2022-12-01T00:29:33.824Z,70.31
2022-12-01T00:32:03.038Z,70.34
2022-12-01T00:34:32.763Z,70.12
2022-12-01T00:37:02.274Z,70.13
2022-12-01T00:39:31.779Z,70.37
2022-12-01T00:42:01.114Z,70.33
2022-12-01T00:44:30.514Z,70.41
2022-12-01T00:46:59.796Z,70.21
2022-12-01T00:49:29.012Z,69.94
2022-12-01T00:51:58.541Z,69.83
2022-12-01T00:54:28.376Z,70.18
2022-12-01T00:56:57.741Z,69.91
2022-12-01T00:59:27.789Z,70.07
2022-12-01T01:01:57.479Z,69.97
2022-12-01T01:04:27.134Z,69.95
2022-12-01T01:06:56.454Z,69.91
2022-12-01T01:09:27.128Z,69.75
2022-12-01T01:11:56.775Z,69.83
2022-12-01T01:14:26.402Z,69.83
2022-12-01T01:16:57.447Z,69.75
2022-12-01T01:19:27.214Z,69.92
2022-12-01T01:21:56.117Z,69.86
2022-12-01T01:24:25.299Z,69.45
2022-12-01T01:26:56.400Z,69.55
2022-12-01T01:29:25.363Z,69.59
2022-12-01T01:31:54.924Z,69.73
2022-12-01T01:34:23.935Z,69.51
2022-12-01T01:36:53.652Z,69.32
2022-12-01T01:39:23.211Z,69.12
2022-12-01T01:41:52.461Z,69.19
2022-12-01T01:45:00.356Z,69.05
2022-12-01T01:47:38.217Z,68.82
2022-12-01T01:50:14.213Z,69.19
2022-12-01T01:52:53.308Z,69.16
2022-12-01T01:55:22.849Z,68.76
2022-12-01T01:57:52.427Z,68.79
2022-12-01T02:00:23.725Z,68.89
2022-12-01T02:02:54.837Z,68.80
2022-12-01T02:05:34.162Z,68.82
2022-12-01T02:08:05.631Z,68.62
2022-12-01T02:11:28.170Z,68.63
2022-12-01T02:14:39.487Z,68.77
2022-12-01T02:17:26.075Z,69.13
2022-12-01T02:20:57.083Z,69.10
2022-12-01T02:24:38.683Z,68.74
2022-12-01T02:27:57.214Z,68.88
2022-12-01T02:30:46.804Z,68.97
2022-12-01T02:33:40.218Z,68.88
2022-12-01T02:36:24.151Z,68.83
2022-12-01T02:39:07.435Z,68.94
2022-12-01T02:41:48.215Z,68.96
2022-12-01T02:44:45.041Z,68.76
2022-12-01T02:47:21.041Z,68.50
2022-12-01T02:49:54.481Z,68.69
2022-12-01T02:52:28.233Z,68.67
2022-12-01T02:54:59.164Z,68.36
2022-12-01T02:57:31.737Z,68.23
2022-12-01T03:00:02.697Z,68.25
2022-12-01T03:03:24.091Z,68.30
2022-12-01T03:06:17.526Z,67.83
2022-12-01T03:09:17.228Z,68.02
2022-12-01T03:12:16.745Z,68.09
2022-12-01T03:15:11.037Z,68.20
2022-12-01T03:18:05.647Z,68.10
2022-12-01T03:21:01.148Z,68.13
2022-12-01T03:23:41.332Z,68.17
2022-12-01T03:26:17.722Z,68.12
2022-12-01T03:28:58.207Z,68.30
2022-12-01T03:31:36.562Z,68.20
2022-12-01T03:34:25.131Z,68.03
2022-12-01T03:37:19.258Z,68.12
2022-12-01T03:39:53.656Z,68.35
2022-12-01T03:42:38.534Z,68.11
2022-12-01T03:45:16.723Z,67.77
2022-12-01T03:47:46.543Z,68.02
2022-12-01T03:50:19.616Z,67.90
2022-12-01T03:53:20.471Z,67.83
2022-12-01T03:56:00.645Z,67.70
2022-12-01T03:58:40.373Z,67.70
2022-12-01T04:01:11.263Z,67.86
2022-12-01T04:03:40.755Z,67.97
2022-12-01T04:06:10.280Z,67.86
2022-12-01T04:08:40.565Z,68.01
2022-12-01T04:11:32.445Z,67.96
2022-12-01T04:14:02.297Z,67.77
2022-12-01T04:16:32.538Z,67.93
2022-12-01T04:19:01.734Z,67.91
2022-12-01T04:21:31.006Z,67.92
2022-12-01T04:24:02.933Z,67.94
2022-12-01T04:26:38.440Z,68.06
2022-12-01T04:29:11.691Z,67.97
2022-12-01T04:31:41.829Z,67.99
2022-12-01T04:34:12.451Z,68.04
2022-12-01T04:36:42.770Z,67.99
2022-12-01T04:39:11.938Z,67.89
2022-12-01T04:41:41.160Z,67.70
2022-12-01T04:44:12.751Z,67.71
2022-12-01T04:46:42.095Z,67.63
2022-12-01T04:49:11.803Z,67.61
2022-12-01T04:51:41.425Z,67.51
2022-12-01T04:54:10.603Z,67.39
2022-12-01T04:56:40.104Z,67.38
2022-12-01T04:59:10.569Z,67.48
2022-12-01T05:01:41.299Z,67.61
2022-12-01T05:04:17.098Z,67.76
2022-12-01T05:06:46.415Z,67.83
2022-12-01T05:09:18.145Z,67.70
2022-12-01T05:11:47.777Z,67.83
2022-12-01T05:14:16.762Z,67.67
2022-12-01T05:16:46.252Z,67.56
2022-12-01T05:19:34.288Z,67.53
2022-12-01T05:22:03.677Z,67.58
2022-12-01T05:24:33.129Z,67.64
2022-12-01T05:27:02.341Z,67.61
2022-12-01T05:29:34.031Z,67.60
2022-12-01T05:32:04.158Z,67.48
2022-12-01T05:34:33.373Z,67.48
2022-12-01T05:37:02.352Z,67.70
2022-12-01T05:39:31.604Z,67.66
2022-12-01T05:42:01.113Z,67.71
2022-12-01T05:44:30.167Z,67.57
2022-12-01T05:47:00.325Z,67.57
2022-12-01T05:49:29.463Z,67.50
2022-12-01T05:51:58.391Z,67.48
2022-12-01T05:54:27.714Z,67.40
2022-12-01T05:56:56.988Z,67.53
2022-12-01T05:59:26.244Z,67.33
2022-12-01T06:01:55.601Z,67.37
2022-12-01T06:04:25.482Z,67.23
2022-12-01T06:06:54.772Z,67.12
2022-12-01T06:09:24.138Z,67.20
2022-12-01T06:11:53.603Z,67.23
2022-12-01T06:14:22.547Z,67.27
2022-12-01T06:16:51.926Z,67.36
2022-12-01T06:19:21.787Z,67.32
2022-12-01T06:21:51.015Z,67.21
2022-12-01T06:24:20.814Z,67.10
2022-12-01T06:26:50.266Z,67.17
2022-12-01T06:29:19.598Z,67.08
2022-12-01T06:31:49.331Z,66.92
2022-12-01T06:34:18.800Z,66.88
2022-12-01T06:36:48.021Z,66.76
2022-12-01T06:39:20.371Z,66.89
2022-12-01T06:41:49.679Z,67.11
2022-12-01T06:44:18.959Z,67.24
2022-12-01T06:46:48.140Z,67.08
2022-12-01T06:49:17.625Z,67.14
2022-12-01T06:51:47.353Z,67.27
2022-12-01T06:54:19.743Z,67.07
2022-12-01T06:56:49.135Z,67.11
2022-12-01T06:59:18.738Z,67.13
2022-12-01T07:01:48.537Z,67.16
2022-12-01T07:04:17.952Z,67.03
2022-12-01T07:06:47.213Z,66.90
2022-12-01T07:09:16.454Z,66.92
2022-12-01T07:11:45.638Z,67.22
2022-12-01T07:14:26.825Z,67.20
2022-12-01T07:16:56.458Z,67.35
2022-12-01T07:19:26.332Z,67.11
2022-12-01T07:21:55.911Z,66.84
2022-12-01T07:24:24.981Z,67.01
2022-12-01T07:26:54.325Z,67.07
2022-12-01T07:29:23.582Z,66.84
2022-12-01T07:31:52.974Z,66.76
2022-12-01T07:34:22.363Z,66.65
2022-12-01T07:36:51.921Z,66.74
2022-12-01T07:39:21.322Z,66.66
2022-12-01T07:41:50.536Z,66.85
2022-12-01T07:44:19.957Z,66.87
2022-12-01T07:46:49.202Z,66.71
2022-12-01T07:49:18.642Z,66.67
2022-12-01T07:51:47.913Z,66.57
2022-12-01T07:54:18.982Z,66.53
2022-12-01T07:56:48.683Z,66.45
2022-12-01T07:59:18.044Z,66.54
2022-12-01T08:01:47.477Z,66.40
2022-12-01T08:04:16.930Z,66.27
2022-12-01T08:06:46.024Z,66.21
2022-12-01T08:09:15.194Z,66.32
2022-12-01T08:11:44.412Z,66.30
2022-12-01T08:14:13.576Z,66.04
2022-12-01T08:16:42.924Z,66.07
2022-12-01T08:19:15.907Z,66.01
2022-12-01T08:21:45.225Z,66.08
2022-12-01T08:24:15.197Z,66.02
2022-12-01T08:26:44.525Z,66.12
2022-12-01T08:29:19.788Z,66.22
2022-12-01T08:31:50.132Z,66.27
2022-12-01T08:34:19.633Z,66.32
2022-12-01T08:36:49.260Z,66.43
2022-12-01T08:39:18.715Z,66.00
2022-12-01T08:41:50.513Z,66.24
2022-12-01T08:44:20.544Z,66.09
2022-12-01T08:46:49.833Z,66.16
2022-12-01T08:49:19.489Z,65.93
2022-12-01T08:51:49.051Z,65.81
2022-12-01T08:54:18.195Z,65.83
2022-12-01T08:56:48.014Z,65.79
2022-12-01T08:59:17.213Z,65.62
2022-12-01T09:01:55.644Z,65.62
2022-12-01T09:04:29.377Z,65.58
2022-12-01T09:06:59.390Z,65.91
2022-12-01T09:09:31.034Z,65.99
2022-12-01T09:12:00.527Z,65.98
2022-12-01T09:14:29.724Z,65.82
2022-12-01T09:16:59.072Z,65.88
2022-12-01T09:19:29.996Z,65.96
2022-12-01T09:21:59.909Z,65.65
2022-12-01T09:24:29.356Z,65.74
2022-12-01T09:27:01.209Z,66.30
2022-12-01T09:29:31.183Z,66.36
2022-12-01T09:32:01.749Z,66.44
2022-12-01T09:34:31.235Z,66.82
2022-12-01T09:37:00.461Z,67.04
2022-12-01T09:39:30.887Z,67.33
2022-12-01T09:42:19.867Z,67.46
2022-12-01T09:44:58.228Z,66.93
2022-12-01T09:47:41.116Z,67.02
2022-12-01T09:50:25.058Z,67.18
2022-12-01T09:53:03.893Z,67.28
2022-12-01T09:55:35.940Z,67.11
2022-12-01T09:58:15.305Z,67.05
2022-12-01T10:00:46.973Z,67.11
2022-12-01T10:03:46.452Z,67.19
2022-12-01T10:06:29.337Z,67.30
2022-12-01T10:09:16.184Z,67.37
2022-12-01T10:11:48.948Z,67.35
2022-12-01T10:14:22.401Z,67.29
2022-12-01T10:17:37.479Z,67.27
2022-12-01T10:20:15.699Z,66.87
2022-12-01T10:23:14.956Z,66.82
2022-12-01T10:26:24.383Z,66.97
2022-12-01T10:29:13.522Z,67.00
2022-12-01T10:31:59.157Z,66.99
2022-12-01T10:34:41.012Z,67.17
2022-12-01T10:37:24.702Z,67.26
2022-12-01T10:39:58.267Z,67.15
2022-12-01T10:42:27.476Z,66.82
2022-12-01T10:45:01.141Z,66.90
2022-12-01T10:47:30.766Z,67.00
2022-12-01T10:50:00.723Z,66.81
2022-12-01T10:52:42.362Z,66.38
2022-12-01T10:55:32.405Z,66.22
2022-12-01T10:58:09.502Z,65.63
2022-12-01T11:00:59.145Z,65.64
2022-12-01T11:03:37.884Z,65.29
2022-12-01T11:06:09.372Z,64.53
2022-12-01T11:08:55.145Z,64.52
2022-12-01T11:12:05.012Z,64.80
2022-12-01T11:14:51.102Z,64.57
2022-12-01T11:17:34.784Z,65.05
2022-12-01T11:20:30.572Z,65.09
2022-12-01T11:23:30.826Z,65.08
2022-12-01T11:26:19.116Z,65.12
2022-12-01T11:29:03.437Z,65.11
2022-12-01T11:31:50.226Z,65.52
2022-12-01T11:34:53.596Z,65.62
2022-12-01T11:37:34.035Z,66.09
2022-12-01T11:40:20.532Z,66.06
2022-12-01T11:42:57.723Z,66.22
2022-12-01T11:45:38.488Z,66.65
2022-12-01T11:48:22.696Z,66.75
2022-12-01T11:51:12.543Z,66.80
2022-12-01T11:53:44.802Z,66.85
2022-12-01T11:56:33.887Z,67.31
2022-12-01T11:59:11.848Z,67.68
2022-12-01T12:02:32.996Z,67.77
2022-12-01T12:05:43.774Z,67.93
2022-12-01T12:08:49.977Z,68.05
2022-12-01T12:11:46.202Z,67.85
2022-12-01T12:14:34.118Z,68.20
2022-12-01T12:17:41.842Z,68.26
2022-12-01T12:20:40.373Z,68.77
2022-12-01T12:23:38.815Z,68.49
2022-12-01T12:26:32.358Z,68.32
2022-12-01T12:29:39.980Z,68.16
2022-12-01T12:33:05.221Z,68.37
2022-12-01T12:35:58.317Z,68.50
2022-12-01T12:39:17.288Z,68.64
2022-12-01T12:41:56.757Z,68.32
2022-12-01T12:44:52.970Z,68.13
2022-12-01T12:47:49.237Z,68.53
2022-12-01T12:50:30.092Z,68.40
2022-12-01T12:53:14.288Z,68.41
2022-12-01T12:55:53.805Z,68.15
2022-12-01T12:58:35.521Z,68.09
2022-12-01T13:01:28.341Z,68.24
2022-12-01T13:04:13.767Z,68.34
2022-12-01T13:07:08.447Z,68.56
2022-12-01T13:09:50.389Z,68.22
2022-12-01T13:12:33.766Z,68.27
2022-12-01T13:15:16.459Z,68.68
2022-12-01T13:18:49.029Z,68.62
2022-12-01T13:21:24.787Z,68.43
2022-12-01T13:23:54.912Z,68.52
2022-12-01T13:26:24.919Z,68.34
2022-12-01T13:28:58.922Z,68.12
2022-12-01T13:31:28.499Z,67.98
2022-12-01T13:34:03.277Z,68.19
2022-12-01T13:36:49.468Z,67.95
2022-12-01T13:39:29.062Z,68.27
2022-12-01T13:42:10.393Z,68.25
2022-12-01T13:44:39.791Z,68.45
2022-12-01T13:47:15.060Z,68.38
2022-12-01T13:49:49.338Z,68.29
2022-12-01T13:52:33.511Z,68.09
2022-12-01T13:55:14.616Z,67.92
2022-12-01T13:58:12.234Z,68.19
2022-12-01T14:00:42.706Z,68.14
2022-12-01T14:03:14.778Z,67.76
2022-12-01T14:05:52.883Z,67.91
2022-12-01T14:08:47.256Z,68.08
2022-12-01T14:11:29.827Z,68.09
2022-12-01T14:14:03.637Z,68.18
2022-12-01T14:16:53.449Z,68.20
2022-12-01T14:19:53.151Z,67.95
2022-12-01T14:23:29.917Z,67.77
2022-12-01T14:26:20.804Z,67.85
2022-12-01T14:29:04.422Z,68.04
2022-12-01T14:31:36.687Z,67.97
2022-12-01T14:34:17.356Z,67.78
2022-12-01T14:37:07.863Z,67.99
2022-12-01T14:39:45.884Z,67.72
2022-12-01T14:42:53.621Z,67.85
2022-12-01T14:46:06.290Z,67.94
2022-12-01T14:48:47.845Z,68.09
2022-12-01T14:51:38.150Z,68.38
2022-12-01T14:54:19.425Z,68.43
2022-12-01T14:56:54.445Z,68.02
2022-12-01T14:59:28.502Z,67.66
2022-12-01T15:02:10.093Z,67.26
2022-12-01T15:05:15.483Z,67.40
2022-12-01T15:07:49.877Z,67.44
2022-12-01T15:10:36.583Z,67.72
2022-12-01T15:13:55.254Z,67.48
2022-12-01T15:16:30.655Z,67.32
2022-12-01T15:19:00.338Z,67.06
2022-12-01T15:21:33.914Z,66.91
2022-12-01T15:24:08.723Z,66.83
2022-12-01T15:26:48.195Z,66.89
2022-12-01T15:29:23.543Z,66.86
2022-12-01T15:31:59.457Z,66.67
2022-12-01T15:34:45.875Z,66.70
2022-12-01T15:37:22.696Z,66.69
2022-12-01T15:40:53.975Z,66.63
2022-12-01T15:43:06.107Z,66.80
2022-12-01T15:45:55.219Z,66.70
2022-12-01T15:48:37.612Z,66.45
2022-12-01T15:51:15.861Z,66.55
2022-12-01T15:54:05.040Z,66.54
2022-12-01T15:56:40.366Z,66.64
2022-12-01T15:59:13.661Z,66.60
2022-12-01T16:01:45.564Z,66.58
2022-12-01T16:04:27.006Z,66.52
2022-12-01T16:07:03.837Z,66.71
2022-12-01T16:10:04.119Z,66.40
2022-12-01T16:12:38.152Z,66.45
2022-12-01T16:15:14.327Z,66.38
2022-12-01T16:17:46.604Z,66.41
2022-12-01T16:20:36.900Z,66.66
2022-12-01T16:23:16.707Z,66.26
2022-12-01T16:25:49.709Z,66.32
2022-12-01T16:28:37.542Z,66.04
2022-12-01T16:31:13.995Z,66.19
2022-12-01T16:33:44.562Z,66.55
2022-12-01T16:36:15.630Z,66.60
2022-12-01T16:38:47.759Z,66.63
2022-12-01T16:41:27.568Z,66.71
2022-12-01T16:44:26.487Z,66.86
2022-12-01T16:46:48.497Z,66.79
2022-12-01T16:49:17.406Z,67.05
2022-12-01T16:52:06.929Z,67.15
2022-12-01T16:54:35.752Z,66.80
2022-12-01T16:57:05.960Z,66.82
2022-12-01T16:59:35.277Z,67.12
2022-12-01T17:02:04.538Z,67.19
2022-12-01T17:04:33.588Z,66.81
2022-12-01T17:07:02.710Z,66.73
2022-12-01T17:09:31.857Z,66.82
2022-12-01T17:12:01.056Z,66.76
2022-12-01T17:14:30.495Z,66.72
2022-12-01T17:16:59.589Z,66.69
2022-12-01T17:19:29.222Z,66.30
2022-12-01T17:21:58.381Z,66.14
2022-12-01T17:24:27.631Z,66.30
2022-12-01T17:26:56.640Z,66.02
2022-12-01T17:29:25.524Z,65.66
2022-12-01T17:31:54.723Z,65.33
2022-12-01T17:34:23.974Z,65.54
2022-12-01T17:36:52.969Z,65.40
2022-12-01T17:39:22.178Z,65.27
2022-12-01T17:41:54.910Z,65.15
2022-12-01T17:44:24.154Z,65.05
2022-12-01T17:46:53.347Z,64.51
2022-12-01T17:49:22.511Z,64.61
2022-12-01T17:51:51.970Z,64.62
2022-12-01T17:54:21.516Z,64.55
2022-12-01T17:56:50.643Z,64.36
2022-12-01T17:59:21.339Z,64.28
2022-12-01T18:01:51.412Z,64.37
2022-12-01T18:04:20.637Z,64.49
2022-12-01T18:06:53.980Z,64.03
2022-12-01T18:09:24.222Z,64.05
2022-12-01T18:11:57.691Z,64.27
2022-12-01T18:14:28.188Z,64.21
2022-12-01T18:16:57.198Z,64.05
2022-12-01T18:19:26.293Z,64.07
2022-12-01T18:21:55.617Z,63.91
2022-12-01T18:24:25.008Z,63.47
2022-12-01T18:26:57.199Z,63.45
2022-12-01T18:29:29.767Z,63.64
2022-12-01T18:32:01.459Z,63.50
2022-12-01T18:34:31.126Z,63.64
2022-12-01T18:37:02.036Z,63.36
2022-12-01T18:39:31.460Z,63.24
2022-12-01T18:42:04.928Z,63.20
2022-12-01T18:44:34.037Z,63.01
2022-12-01T18:47:04.949Z,63.03
2022-12-01T18:49:35.355Z,63.10
2022-12-01T18:52:05.983Z,63.11
2022-12-01T18:54:36.854Z,63.23
2022-12-01T18:57:05.888Z,63.14
2022-12-01T18:59:34.787Z,62.79
2022-12-01T19:02:03.860Z,62.66
2022-12-01T19:04:32.973Z,62.83
2022-12-01T19:07:02.026Z,63.24
2022-12-01T19:09:31.221Z,63.33
2022-12-01T19:12:01.169Z,63.42
2022-12-01T19:14:31.007Z,63.48
2022-12-01T19:17:00.174Z,63.40
2022-12-01T19:19:37.155Z,63.56
2022-12-01T19:22:06.927Z,63.59
2022-12-01T19:24:35.992Z,63.50
2022-12-01T19:27:05.511Z,63.42
2022-12-01T19:29:34.922Z,63.37
2022-12-01T19:32:04.261Z,63.30
2022-12-01T19:34:33.789Z,63.27
2022-12-01T19:37:03.037Z,63.34
2022-12-01T19:39:31.993Z,63.54
2022-12-01T19:42:01.098Z,63.60
2022-12-01T19:44:30.189Z,63.76
2022-12-01T19:46:59.590Z,63.76
2022-12-01T19:49:28.896Z,63.97
2022-12-01T19:51:58.508Z,64.15
2022-12-01T19:54:29.496Z,64.49
2022-12-01T19:56:58.865Z,64.48
2022-12-01T19:59:28.010Z,64.65
2022-12-01T20:01:57.179Z,64.77
2022-12-01T20:04:26.743Z,64.55
2022-12-01T20:06:55.556Z,64.69
2022-12-01T20:09:24.584Z,64.92
2022-12-01T20:11:55.088Z,65.03
2022-12-01T20:14:24.187Z,65.28
2022-12-01T20:16:56.832Z,65.56
2022-12-01T20:19:25.826Z,65.53
2022-12-01T20:21:54.930Z,65.39
2022-12-01T20:24:26.071Z,65.34
2022-12-01T20:26:58.850Z,65.38
2022-12-01T20:29:31.368Z,65.27
2022-12-01T20:32:04.021Z,65.19
2022-12-01T20:34:36.398Z,65.03
2022-12-01T20:37:06.015Z,65.13
2022-12-01T20:39:38.135Z,65.24
2022-12-01T20:42:07.715Z,65.45
2022-12-01T20:44:37.767Z,65.55
2022-12-01T20:47:07.033Z,65.48
2022-12-01T20:49:36.351Z,65.34
2022-12-01T20:52:05.719Z,65.33
2022-12-01T20:54:34.830Z,65.22
2022-12-01T20:57:04.394Z,65.07
2022-12-01T20:59:33.798Z,64.55
2022-12-01T21:02:02.979Z,64.06
2022-12-01T21:04:32.075Z,63.71
2022-12-01T21:07:01.385Z,63.61
2022-12-01T21:09:31.050Z,63.85
2022-12-01T21:12:22.739Z,63.96
2022-12-01T21:15:18.983Z,63.73
2022-12-01T21:18:04.862Z,63.54
2022-12-01T21:20:40.449Z,63.43
2022-12-01T21:23:17.018Z,63.49
2022-12-01T21:25:46.235Z,63.66
2022-12-01T21:28:26.408Z,63.66
2022-12-01T21:31:11.716Z,63.66
2022-12-01T21:33:41.243Z,63.57
2022-12-01T21:36:23.551Z,63.48
2022-12-01T21:39:06.940Z,63.52
2022-12-01T21:41:36.477Z,63.27
2022-12-01T21:44:21.848Z,63.53
2022-12-01T21:46:59.186Z,63.31
2022-12-01T21:49:40.635Z,63.17
2022-12-01T21:52:23.684Z,63.10
2022-12-01T21:54:53.702Z,63.03
2022-12-01T21:57:43.336Z,63.03
2022-12-01T22:00:38.463Z,63.40
2022-12-01T22:03:34.892Z,63.34
2022-12-01T22:06:42.837Z,63.28
2022-12-01T22:09:25.933Z,63.54
2022-12-01T22:12:22.016Z,63.73
2022-12-01T22:14:52.349Z,63.77
2022-12-01T22:17:23.667Z,63.72
2022-12-01T22:20:02.498Z,63.62
2022-12-01T22:22:36.082Z,63.68
2022-12-01T22:25:30.718Z,63.74
2022-12-01T22:28:01.130Z,63.69
2022-12-01T22:30:30.237Z,63.74
2022-12-01T22:33:11.883Z,63.65
2022-12-01T22:35:46.790Z,63.77
2022-12-01T22:38:27.488Z,63.88
2022-12-01T22:41:04.456Z,63.85
2022-12-01T22:43:56.069Z,64.15
2022-12-01T22:46:31.810Z,64.35
2022-12-01T22:49:23.079Z,64.55
2022-12-01T22:52:02.135Z,64.24
2022-12-01T22:54:40.506Z,64.15
2022-12-01T22:57:25.732Z,64.06
2022-12-01T22:59:57.142Z,64.11
2022-12-01T23:02:32.368Z,64.30
2022-12-01T23:05:30.483Z,64.33
2022-12-01T23:07:59.816Z,64.39
2022-12-01T23:10:36.127Z,64.31
2022-12-01T23:13:31.788Z,64.54
2022-12-01T23:16:00.711Z,64.82
2022-12-01T23:18:34.616Z,64.72
2022-12-01T23:21:04.951Z,64.50
2022-12-01T23:23:38.350Z,64.49
2022-12-01T23:26:10.483Z,64.67
2022-12-01T23:28:42.458Z,64.83
2022-12-01T23:31:12.085Z,65.14
2022-12-01T23:33:41.348Z,65.52
2022-12-01T23:36:25.320Z,65.24
2022-12-01T23:39:12.430Z,65.51
2022-12-01T23:41:48.029Z,65.48
2022-12-01T23:44:42.285Z,65.46
2022-12-01T23:47:31.971Z,65.30
2022-12-01T23:50:05.854Z,65.28
2022-12-01T23:52:38.528Z,65.33
2022-12-01T23:55:22.559Z,65.15
2022-12-01T23:57:53.378Z,65.11
